sensor_id;sensor_type;location;lat;lon;timestamp;P1;durP1;ratioP1;P2;durP2;ratioP2
9276;SDS011;4676;42.678;23.244;2023-04-30T00:01:10;9.63;;;4.73;;
9276;SDS011;4676;42.678;23.244;2023-04-30T00:03:37;6.43;;;5.83;;
9276;SDS011;4676;42.678;23.244;2023-04-30T00:06:05;5.97;;;5.47;;
9276;SDS011;4676;42.678;23.244;2023-04-30T00:08:31;5.50;;;5.13;;
9276;SDS011;4676;42.678;23.244;2023-04-30T00:10:58;8.63;;;7.00;;
9276;SDS011;4676;42.678;23.244;2023-04-30T00:13:25;11.63;;;6.23;;
9276;SDS011;4676;42.678;23.244;2023-04-30T00:15:51;9.37;;;6.00;;
9276;SDS011;4676;42.678;23.244;2023-04-30T00:18:18;10.17;;;6.40;;
9276;SDS011;4676;42.678;23.244;2023-04-30T00:20:45;7.67;;;6.77;;
9276;SDS011;4676;42.678;23.244;2023-04-30T00:23:13;7.27;;;6.57;;
9276;SDS011;4676;42.678;23.244;2023-04-30T00:25:40;6.77;;;5.73;;
9276;SDS011;4676;42.678;23.244;2023-04-30T00:28:06;6.77;;;6.07;;
9276;SDS011;4676;42.678;23.244;2023-04-30T00:30:33;6.63;;;6.00;;
9276;SDS011;4676;42.678;23.244;2023-04-30T00:33:00;8.00;;;6.50;;
9276;SDS011;4676;42.678;23.244;2023-04-30T00:35:26;8.70;;;6.10;;
9276;SDS011;4676;42.678;23.244;2023-04-30T00:37:53;6.03;;;5.43;;
9276;SDS011;4676;42.678;23.244;2023-04-30T00:40:21;6.63;;;5.83;;
9276;SDS011;4676;42.678;23.244;2023-04-30T00:42:48;8.70;;;5.83;;
9276;SDS011;4676;42.678;23.244;2023-04-30T00:47:51;6.77;;;4.87;;
9276;SDS011;4676;42.678;23.244;2023-04-30T00:50:18;5.73;;;5.13;;
9276;SDS011;4676;42.678;23.244;2023-04-30T00:52:45;6.80;;;5.27;;
9276;SDS011;4676;42.678;23.244;2023-04-30T00:55:12;5.80;;;5.30;;
9276;SDS011;4676;42.678;23.244;2023-04-30T00:57:40;7.57;;;4.97;;
9276;SDS011;4676;42.678;23.244;2023-04-30T01:00:07;5.20;;;4.63;;
9276;SDS011;4676;42.678;23.244;2023-04-30T01:02:35;6.10;;;4.50;;
9276;SDS011;4676;42.678;23.244;2023-04-30T01:05:02;6.27;;;5.67;;
9276;SDS011;4676;42.678;23.244;2023-04-30T01:07:30;7.63;;;5.33;;
9276;SDS011;4676;42.678;23.244;2023-04-30T01:09:57;5.67;;;5.10;;
9276;SDS011;4676;42.678;23.244;2023-04-30T01:12:25;8.40;;;5.00;;
9276;SDS011;4676;42.678;23.244;2023-04-30T01:15:03;5.50;;;4.87;;
9276;SDS011;4676;42.678;23.244;2023-04-30T01:17:36;13.63;;;5.23;;
9276;SDS011;4676;42.678;23.244;2023-04-30T01:20:07;5.40;;;4.90;;
9276;SDS011;4676;42.678;23.244;2023-04-30T01:22:38;6.77;;;5.47;;
9276;SDS011;4676;42.678;23.244;2023-04-30T01:25:20;6.03;;;4.97;;
9276;SDS011;4676;42.678;23.244;2023-04-30T01:28:00;5.77;;;4.83;;
9276;SDS011;4676;42.678;23.244;2023-04-30T01:30:30;5.50;;;4.30;;
9276;SDS011;4676;42.678;23.244;2023-04-30T01:32:57;5.20;;;4.80;;
9276;SDS011;4676;42.678;23.244;2023-04-30T01:35:27;7.20;;;5.53;;
9276;SDS011;4676;42.678;23.244;2023-04-30T01:38:19;5.13;;;4.63;;
9276;SDS011;4676;42.678;23.244;2023-04-30T01:41:02;9.07;;;6.27;;
9276;SDS011;4676;42.678;23.244;2023-04-30T01:43:37;6.57;;;5.90;;
9276;SDS011;4676;42.678;23.244;2023-04-30T01:46:11;9.57;;;5.93;;
9276;SDS011;4676;42.678;23.244;2023-04-30T01:48:45;6.13;;;5.63;;
9276;SDS011;4676;42.678;23.244;2023-04-30T01:51:23;8.80;;;6.17;;
9276;SDS011;4676;42.678;23.244;2023-04-30T01:53:56;9.27;;;6.20;;
9276;SDS011;4676;42.678;23.244;2023-04-30T01:56:28;6.47;;;5.87;;
9276;SDS011;4676;42.678;23.244;2023-04-30T01:58:59;6.67;;;6.07;;
9276;SDS011;4676;42.678;23.244;2023-04-30T02:01:28;7.57;;;6.67;;
9276;SDS011;4676;42.678;23.244;2023-04-30T02:03:56;13.40;;;7.20;;
9276;SDS011;4676;42.678;23.244;2023-04-30T02:06:23;9.80;;;8.10;;
9276;SDS011;4676;42.678;23.244;2023-04-30T02:08:52;12.77;;;9.10;;
9276;SDS011;4676;42.678;23.244;2023-04-30T02:11:19;11.87;;;8.77;;
9276;SDS011;4676;42.678;23.244;2023-04-30T02:13:45;17.33;;;9.63;;
9276;SDS011;4676;42.678;23.244;2023-04-30T02:16:13;14.43;;;10.57;;
9276;SDS011;4676;42.678;23.244;2023-04-30T02:18:41;11.43;;;9.07;;
9276;SDS011;4676;42.678;23.244;2023-04-30T02:21:08;14.27;;;8.87;;
9276;SDS011;4676;42.678;23.244;2023-04-30T02:23:34;10.77;;;8.37;;
9276;SDS011;4676;42.678;23.244;2023-04-30T02:26:01;12.33;;;9.10;;
9276;SDS011;4676;42.678;23.244;2023-04-30T02:28:28;13.77;;;8.17;;
9276;SDS011;4676;42.678;23.244;2023-04-30T02:30:54;9.50;;;7.33;;
9276;SDS011;4676;42.678;23.244;2023-04-30T02:33:22;9.27;;;7.03;;
9276;SDS011;4676;42.678;23.244;2023-04-30T02:35:49;8.17;;;7.03;;
9276;SDS011;4676;42.678;23.244;2023-04-30T02:38:16;8.33;;;7.27;;
9276;SDS011;4676;42.678;23.244;2023-04-30T02:40:43;12.97;;;7.67;;
9276;SDS011;4676;42.678;23.244;2023-04-30T02:43:09;12.27;;;7.77;;
9276;SDS011;4676;42.678;23.244;2023-04-30T02:45:36;7.97;;;7.10;;
9276;SDS011;4676;42.678;23.244;2023-04-30T02:48:03;10.03;;;8.13;;
9276;SDS011;4676;42.678;23.244;2023-04-30T02:50:31;7.93;;;7.23;;
9276;SDS011;4676;42.678;23.244;2023-04-30T02:52:58;9.67;;;7.70;;
9276;SDS011;4676;42.678;23.244;2023-04-30T02:55:25;8.43;;;7.53;;
9276;SDS011;4676;42.678;23.244;2023-04-30T02:57:51;12.23;;;8.30;;
9276;SDS011;4676;42.678;23.244;2023-04-30T03:00:18;7.93;;;7.13;;
9276;SDS011;4676;42.678;23.244;2023-04-30T03:02:45;8.80;;;7.90;;
9276;SDS011;4676;42.678;23.244;2023-04-30T03:05:12;8.30;;;7.47;;
9276;SDS011;4676;42.678;23.244;2023-04-30T03:07:41;8.80;;;7.93;;
9276;SDS011;4676;42.678;23.244;2023-04-30T03:10:08;7.87;;;7.17;;
9276;SDS011;4676;42.678;23.244;2023-04-30T03:12:35;10.33;;;7.60;;
9276;SDS011;4676;42.678;23.244;2023-04-30T03:15:02;9.20;;;7.07;;
9276;SDS011;4676;42.678;23.244;2023-04-30T03:17:29;8.03;;;7.27;;
9276;SDS011;4676;42.678;23.244;2023-04-30T03:19:56;9.20;;;7.13;;
9276;SDS011;4676;42.678;23.244;2023-04-30T03:22:23;10.40;;;7.63;;
9276;SDS011;4676;42.678;23.244;2023-04-30T03:24:52;10.30;;;6.70;;
9276;SDS011;4676;42.678;23.244;2023-04-30T03:27:18;8.93;;;7.00;;
9276;SDS011;4676;42.678;23.244;2023-04-30T03:29:45;8.43;;;7.47;;
9276;SDS011;4676;42.678;23.244;2023-04-30T03:32:12;9.67;;;7.63;;
9276;SDS011;4676;42.678;23.244;2023-04-30T03:34:39;7.63;;;6.83;;
9276;SDS011;4676;42.678;23.244;2023-04-30T03:37:06;13.00;;;7.70;;
9276;SDS011;4676;42.678;23.244;2023-04-30T03:39:33;9.03;;;7.60;;
9276;SDS011;4676;42.678;23.244;2023-04-30T03:42:01;11.80;;;7.77;;
9276;SDS011;4676;42.678;23.244;2023-04-30T03:44:28;8.47;;;7.67;;
9276;SDS011;4676;42.678;23.244;2023-04-30T03:46:55;8.17;;;7.33;;
9276;SDS011;4676;42.678;23.244;2023-04-30T03:49:21;11.70;;;8.30;;
9276;SDS011;4676;42.678;23.244;2023-04-30T03:51:48;10.47;;;7.47;;
9276;SDS011;4676;42.678;23.244;2023-04-30T03:54:15;8.37;;;7.53;;
9276;SDS011;4676;42.678;23.244;2023-04-30T03:56:41;8.17;;;7.47;;
9276;SDS011;4676;42.678;23.244;2023-04-30T03:59:10;14.03;;;7.63;;
9276;SDS011;4676;42.678;23.244;2023-04-30T04:01:36;8.10;;;7.30;;
9276;SDS011;4676;42.678;23.244;2023-04-30T04:04:03;9.83;;;7.60;;
9276;SDS011;4676;42.678;23.244;2023-04-30T04:06:30;8.20;;;7.50;;
9276;SDS011;4676;42.678;23.244;2023-04-30T04:08:57;8.37;;;7.37;;
9276;SDS011;4676;42.678;23.244;2023-04-30T04:11:23;8.43;;;7.57;;
9276;SDS011;4676;42.678;23.244;2023-04-30T04:13:50;9.77;;;7.67;;
9276;SDS011;4676;42.678;23.244;2023-04-30T04:16:18;16.03;;;7.70;;
9276;SDS011;4676;42.678;23.244;2023-04-30T04:18:46;8.23;;;7.33;;
9276;SDS011;4676;42.678;23.244;2023-04-30T04:21:12;8.67;;;7.87;;
9276;SDS011;4676;42.678;23.244;2023-04-30T04:23:39;12.13;;;7.83;;
9276;SDS011;4676;42.678;23.244;2023-04-30T04:26:06;9.70;;;8.07;;
9276;SDS011;4676;42.678;23.244;2023-04-30T04:31:03;11.03;;;8.77;;
9276;SDS011;4676;42.678;23.244;2023-04-30T04:33:31;9.10;;;8.20;;
9276;SDS011;4676;42.678;23.244;2023-04-30T04:35:59;10.03;;;8.37;;
9276;SDS011;4676;42.678;23.244;2023-04-30T04:38:25;11.67;;;8.97;;
9276;SDS011;4676;42.678;23.244;2023-04-30T04:40:52;13.30;;;9.73;;
9276;SDS011;4676;42.678;23.244;2023-04-30T04:43:19;17.30;;;9.60;;
9276;SDS011;4676;42.678;23.244;2023-04-30T04:45:46;11.60;;;8.93;;
9276;SDS011;4676;42.678;23.244;2023-04-30T04:48:13;17.37;;;10.13;;
9276;SDS011;4676;42.678;23.244;2023-04-30T04:50:41;19.33;;;10.07;;
9276;SDS011;4676;42.678;23.244;2023-04-30T04:53:07;11.93;;;10.53;;
9276;SDS011;4676;42.678;23.244;2023-04-30T04:55:34;12.80;;;10.47;;
9276;SDS011;4676;42.678;23.244;2023-04-30T04:58:01;17.27;;;11.13;;
9276;SDS011;4676;42.678;23.244;2023-04-30T05:00:27;20.30;;;11.77;;
9276;SDS011;4676;42.678;23.244;2023-04-30T05:02:54;21.30;;;11.57;;
9276;SDS011;4676;42.678;23.244;2023-04-30T05:05:21;14.30;;;11.17;;
9276;SDS011;4676;42.678;23.244;2023-04-30T05:07:49;19.80;;;12.63;;
9276;SDS011;4676;42.678;23.244;2023-04-30T05:10:18;21.47;;;11.70;;
9276;SDS011;4676;42.678;23.244;2023-04-30T05:12:45;18.83;;;11.27;;
9276;SDS011;4676;42.678;23.244;2023-04-30T05:15:12;18.77;;;11.97;;
9276;SDS011;4676;42.678;23.244;2023-04-30T05:17:39;14.03;;;11.73;;
9276;SDS011;4676;42.678;23.244;2023-04-30T05:20:06;16.40;;;12.27;;
9276;SDS011;4676;42.678;23.244;2023-04-30T05:22:33;17.63;;;13.77;;
9276;SDS011;4676;42.678;23.244;2023-04-30T05:25:02;22.37;;;14.17;;
9276;SDS011;4676;42.678;23.244;2023-04-30T05:27:28;16.63;;;12.43;;
9276;SDS011;4676;42.678;23.244;2023-04-30T05:29:55;15.50;;;11.70;;
9276;SDS011;4676;42.678;23.244;2023-04-30T05:32:22;16.80;;;11.93;;
9276;SDS011;4676;42.678;23.244;2023-04-30T05:34:48;16.10;;;10.47;;
9276;SDS011;4676;42.678;23.244;2023-04-30T05:37:15;12.27;;;10.10;;
9276;SDS011;4676;42.678;23.244;2023-04-30T05:39:44;11.60;;;10.40;;
9276;SDS011;4676;42.678;23.244;2023-04-30T05:42:12;20.17;;;10.20;;
9276;SDS011;4676;42.678;23.244;2023-04-30T05:44:39;14.80;;;10.10;;
9276;SDS011;4676;42.678;23.244;2023-04-30T05:47:06;11.47;;;10.03;;
9276;SDS011;4676;42.678;23.244;2023-04-30T05:49:33;11.47;;;10.03;;
9276;SDS011;4676;42.678;23.244;2023-04-30T05:52:00;13.47;;;10.07;;
9276;SDS011;4676;42.678;23.244;2023-04-30T05:54:27;12.87;;;10.37;;
9276;SDS011;4676;42.678;23.244;2023-04-30T05:56:54;17.03;;;10.17;;
9276;SDS011;4676;42.678;23.244;2023-04-30T05:59:22;14.33;;;10.70;;
9276;SDS011;4676;42.678;23.244;2023-04-30T06:01:50;21.63;;;13.80;;
9276;SDS011;4676;42.678;23.244;2023-04-30T06:04:16;23.10;;;12.73;;
9276;SDS011;4676;42.678;23.244;2023-04-30T06:06:43;18.53;;;13.17;;
9276;SDS011;4676;42.678;23.244;2023-04-30T06:09:10;16.87;;;12.60;;
9276;SDS011;4676;42.678;23.244;2023-04-30T06:11:36;15.80;;;12.27;;
9276;SDS011;4676;42.678;23.244;2023-04-30T06:14:03;18.20;;;10.90;;
9276;SDS011;4676;42.678;23.244;2023-04-30T06:16:31;18.93;;;12.13;;
9276;SDS011;4676;42.678;23.244;2023-04-30T06:18:58;16.17;;;11.27;;
9276;SDS011;4676;42.678;23.244;2023-04-30T06:21:25;20.70;;;12.63;;
9276;SDS011;4676;42.678;23.244;2023-04-30T06:23:51;21.30;;;12.57;;
9276;SDS011;4676;42.678;23.244;2023-04-30T06:26:18;13.60;;;10.17;;
9276;SDS011;4676;42.678;23.244;2023-04-30T06:28:45;16.70;;;12.50;;
9276;SDS011;4676;42.678;23.244;2023-04-30T06:31:12;17.37;;;9.10;;
9276;SDS011;4676;42.678;23.244;2023-04-30T06:33:40;13.03;;;9.93;;
9276;SDS011;4676;42.678;23.244;2023-04-30T06:36:07;13.30;;;10.53;;
9276;SDS011;4676;42.678;23.244;2023-04-30T06:38:34;12.27;;;10.40;;
9276;SDS011;4676;42.678;23.244;2023-04-30T06:41:01;20.53;;;11.83;;
9276;SDS011;4676;42.678;23.244;2023-04-30T06:43:27;16.53;;;11.33;;
9276;SDS011;4676;42.678;23.244;2023-04-30T06:45:54;15.93;;;11.97;;
9276;SDS011;4676;42.678;23.244;2023-04-30T06:48:21;14.97;;;11.47;;
9276;SDS011;4676;42.678;23.244;2023-04-30T06:50:49;15.00;;;10.80;;
9276;SDS011;4676;42.678;23.244;2023-04-30T06:53:16;14.27;;;10.83;;
9276;SDS011;4676;42.678;23.244;2023-04-30T06:55:43;19.90;;;11.27;;
9276;SDS011;4676;42.678;23.244;2023-04-30T06:58:10;11.63;;;10.00;;
9276;SDS011;4676;42.678;23.244;2023-04-30T07:00:37;13.63;;;10.43;;
9276;SDS011;4676;42.678;23.244;2023-04-30T07:03:04;14.97;;;10.90;;
9276;SDS011;4676;42.678;23.244;2023-04-30T07:05:31;18.00;;;11.07;;
9276;SDS011;4676;42.678;23.244;2023-04-30T07:08:00;15.03;;;10.43;;
9276;SDS011;4676;42.678;23.244;2023-04-30T07:10:27;13.90;;;10.90;;
9276;SDS011;4676;42.678;23.244;2023-04-30T07:12:54;15.17;;;13.10;;
9276;SDS011;4676;42.678;23.244;2023-04-30T07:15:21;14.90;;;10.53;;
9276;SDS011;4676;42.678;23.244;2023-04-30T07:17:47;15.00;;;9.00;;
9276;SDS011;4676;42.678;23.244;2023-04-30T07:20:14;15.30;;;8.47;;
9276;SDS011;4676;42.678;23.244;2023-04-30T07:22:41;14.50;;;7.37;;
9276;SDS011;4676;42.678;23.244;2023-04-30T07:25:11;10.43;;;7.03;;
9276;SDS011;4676;42.678;23.244;2023-04-30T07:27:38;8.03;;;7.10;;
9276;SDS011;4676;42.678;23.244;2023-04-30T07:30:05;7.80;;;7.13;;
9276;SDS011;4676;42.678;23.244;2023-04-30T07:32:34;14.27;;;9.83;;
9276;SDS011;4676;42.678;23.244;2023-04-30T07:35:01;9.60;;;7.93;;
9276;SDS011;4676;42.678;23.244;2023-04-30T07:37:28;10.70;;;8.40;;
9276;SDS011;4676;42.678;23.244;2023-04-30T07:39:54;18.07;;;9.93;;
9276;SDS011;4676;42.678;23.244;2023-04-30T07:42:22;10.03;;;7.47;;
9276;SDS011;4676;42.678;23.244;2023-04-30T07:44:49;14.57;;;8.00;;
9276;SDS011;4676;42.678;23.244;2023-04-30T07:47:16;11.77;;;7.33;;
9276;SDS011;4676;42.678;23.244;2023-04-30T07:49:44;7.23;;;4.87;;
9276;SDS011;4676;42.678;23.244;2023-04-30T07:52:11;7.17;;;5.40;;
9276;SDS011;4676;42.678;23.244;2023-04-30T07:54:37;4.77;;;4.37;;
9276;SDS011;4676;42.678;23.244;2023-04-30T07:57:04;5.00;;;4.57;;
9276;SDS011;4676;42.678;23.244;2023-04-30T07:59:33;5.33;;;4.77;;
9276;SDS011;4676;42.678;23.244;2023-04-30T08:02:00;7.30;;;5.33;;
9276;SDS011;4676;42.678;23.244;2023-04-30T08:04:27;4.80;;;4.50;;
9276;SDS011;4676;42.678;23.244;2023-04-30T08:06:54;4.87;;;4.27;;
9276;SDS011;4676;42.678;23.244;2023-04-30T08:09:21;4.93;;;4.23;;
9276;SDS011;4676;42.678;23.244;2023-04-30T08:11:47;5.13;;;4.73;;
9276;SDS011;4676;42.678;23.244;2023-04-30T08:14:14;3.90;;;3.70;;
9276;SDS011;4676;42.678;23.244;2023-04-30T08:16:42;3.70;;;3.50;;
9276;SDS011;4676;42.678;23.244;2023-04-30T08:19:09;5.07;;;4.30;;
9276;SDS011;4676;42.678;23.244;2023-04-30T08:21:36;8.50;;;5.17;;
9276;SDS011;4676;42.678;23.244;2023-04-30T08:24:03;7.80;;;4.20;;
9276;SDS011;4676;42.678;23.244;2023-04-30T08:26:30;6.17;;;3.70;;
9276;SDS011;4676;42.678;23.244;2023-04-30T08:28:56;4.87;;;3.73;;
9276;SDS011;4676;42.678;23.244;2023-04-30T08:31:23;4.07;;;3.37;;
9276;SDS011;4676;42.678;23.244;2023-04-30T08:33:51;4.70;;;3.30;;
9276;SDS011;4676;42.678;23.244;2023-04-30T08:36:18;3.47;;;3.27;;
9276;SDS011;4676;42.678;23.244;2023-04-30T08:38:45;3.43;;;3.23;;
9276;SDS011;4676;42.678;23.244;2023-04-30T08:41:12;3.30;;;3.10;;
9276;SDS011;4676;42.678;23.244;2023-04-30T08:43:40;5.33;;;3.70;;
9276;SDS011;4676;42.678;23.244;2023-04-30T08:46:08;7.93;;;3.60;;
9276;SDS011;4676;42.678;23.244;2023-04-30T08:48:37;3.93;;;3.63;;
9276;SDS011;4676;42.678;23.244;2023-04-30T08:51:07;6.17;;;3.30;;
9276;SDS011;4676;42.678;23.244;2023-04-30T08:53:34;3.37;;;3.10;;
9276;SDS011;4676;42.678;23.244;2023-04-30T08:56:02;3.27;;;3.07;;
9276;SDS011;4676;42.678;23.244;2023-04-30T08:58:29;3.40;;;3.20;;
9276;SDS011;4676;42.678;23.244;2023-04-30T09:00:56;2.63;;;2.40;;
9276;SDS011;4676;42.678;23.244;2023-04-30T09:03:24;3.13;;;2.93;;
9276;SDS011;4676;42.678;23.244;2023-04-30T09:05:52;3.20;;;3.00;;
9276;SDS011;4676;42.678;23.244;2023-04-30T09:08:39;3.03;;;2.83;;
9276;SDS011;4676;42.678;23.244;2023-04-30T09:11:18;3.60;;;3.20;;
9276;SDS011;4676;42.678;23.244;2023-04-30T09:13:46;2.80;;;2.70;;
9276;SDS011;4676;42.678;23.244;2023-04-30T09:16:14;3.00;;;2.90;;
9276;SDS011;4676;42.678;23.244;2023-04-30T09:18:41;3.20;;;3.00;;
9276;SDS011;4676;42.678;23.244;2023-04-30T09:21:08;3.33;;;3.13;;
9276;SDS011;4676;42.678;23.244;2023-04-30T09:23:36;3.53;;;3.33;;
9276;SDS011;4676;42.678;23.244;2023-04-30T09:26:20;3.40;;;3.10;;
9276;SDS011;4676;42.678;23.244;2023-04-30T09:28:54;2.80;;;2.70;;
9276;SDS011;4676;42.678;23.244;2023-04-30T09:31:22;4.03;;;2.73;;
9276;SDS011;4676;42.678;23.244;2023-04-30T09:33:50;3.77;;;3.50;;
9276;SDS011;4676;42.678;23.244;2023-04-30T09:36:17;4.10;;;3.90;;
9276;SDS011;4676;42.678;23.244;2023-04-30T09:38:45;3.37;;;3.27;;
9276;SDS011;4676;42.678;23.244;2023-04-30T09:43:50;3.53;;;3.23;;
9276;SDS011;4676;42.678;23.244;2023-04-30T09:46:17;3.43;;;3.23;;
9276;SDS011;4676;42.678;23.244;2023-04-30T09:48:45;3.57;;;3.37;;
9276;SDS011;4676;42.678;23.244;2023-04-30T09:51:13;3.60;;;3.30;;
9276;SDS011;4676;42.678;23.244;2023-04-30T09:53:41;4.37;;;4.00;;
9276;SDS011;4676;42.678;23.244;2023-04-30T09:56:10;4.50;;;4.20;;
9276;SDS011;4676;42.678;23.244;2023-04-30T09:58:39;3.03;;;2.83;;
9276;SDS011;4676;42.678;23.244;2023-04-30T10:01:09;3.90;;;3.70;;
9276;SDS011;4676;42.678;23.244;2023-04-30T10:03:37;3.20;;;3.00;;
9276;SDS011;4676;42.678;23.244;2023-04-30T10:06:05;3.43;;;3.23;;
9276;SDS011;4676;42.678;23.244;2023-04-30T10:08:33;3.60;;;3.40;;
9276;SDS011;4676;42.678;23.244;2023-04-30T10:11:06;2.63;;;2.53;;
9276;SDS011;4676;42.678;23.244;2023-04-30T10:13:37;3.07;;;2.83;;
9276;SDS011;4676;42.678;23.244;2023-04-30T11:17:05;3.73;;;3.43;;
9276;SDS011;4676;42.678;23.244;2023-04-30T11:19:32;3.10;;;2.90;;
9276;SDS011;4676;42.678;23.244;2023-04-30T11:22:18;4.07;;;2.77;;
9276;SDS011;4676;42.678;23.244;2023-04-30T11:24:53;3.83;;;3.50;;
9276;SDS011;4676;42.678;23.244;2023-04-30T11:27:31;3.63;;;3.40;;
9276;SDS011;4676;42.678;23.244;2023-04-30T11:29:59;3.00;;;2.80;;
9276;SDS011;4676;42.678;23.244;2023-04-30T11:32:32;3.40;;;3.20;;
9276;SDS011;4676;42.678;23.244;2023-04-30T11:34:59;3.10;;;3.00;;
9276;SDS011;4676;42.678;23.244;2023-04-30T11:37:29;3.10;;;3.00;;
9276;SDS011;4676;42.678;23.244;2023-04-30T11:39:57;3.53;;;3.33;;
9276;SDS011;4676;42.678;23.244;2023-04-30T11:42:28;4.30;;;4.00;;
9276;SDS011;4676;42.678;23.244;2023-04-30T11:45:01;3.40;;;3.20;;
9276;SDS011;4676;42.678;23.244;2023-04-30T11:47:38;3.10;;;2.90;;
9276;SDS011;4676;42.678;23.244;2023-04-30T11:50:06;3.60;;;3.30;;
9276;SDS011;4676;42.678;23.244;2023-04-30T11:52:34;4.40;;;2.97;;
9276;SDS011;4676;42.678;23.244;2023-04-30T11:55:04;2.70;;;2.60;;
9276;SDS011;4676;42.678;23.244;2023-04-30T11:57:38;3.20;;;3.00;;
9276;SDS011;4676;42.678;23.244;2023-04-30T12:00:12;3.43;;;2.60;;
9276;SDS011;4676;42.678;23.244;2023-04-30T12:02:43;3.03;;;2.83;;
9276;SDS011;4676;42.678;23.244;2023-04-30T12:05:11;3.43;;;3.33;;
9276;SDS011;4676;42.678;23.244;2023-04-30T12:07:47;3.17;;;3.07;;
9276;SDS011;4676;42.678;23.244;2023-04-30T12:10:17;3.40;;;3.20;;
9276;SDS011;4676;42.678;23.244;2023-04-30T12:12:45;3.57;;;3.27;;
9276;SDS011;4676;42.678;23.244;2023-04-30T12:15:13;3.17;;;2.73;;
9276;SDS011;4676;42.678;23.244;2023-04-30T12:17:43;3.40;;;3.20;;
9276;SDS011;4676;42.678;23.244;2023-04-30T12:20:11;3.60;;;3.40;;
9276;SDS011;4676;42.678;23.244;2023-04-30T12:22:39;3.80;;;3.60;;
9276;SDS011;4676;42.678;23.244;2023-04-30T12:25:06;3.40;;;3.20;;
9276;SDS011;4676;42.678;23.244;2023-04-30T12:27:35;12.83;;;4.27;;
9276;SDS011;4676;42.678;23.244;2023-04-30T12:30:03;3.27;;;3.07;;
9276;SDS011;4676;42.678;23.244;2023-04-30T12:32:36;3.03;;;2.80;;
9276;SDS011;4676;42.678;23.244;2023-04-30T12:35:06;4.83;;;2.50;;
9276;SDS011;4676;42.678;23.244;2023-04-30T12:37:34;2.33;;;2.23;;
9276;SDS011;4676;42.678;23.244;2023-04-30T12:40:01;2.77;;;2.67;;
9276;SDS011;4676;42.678;23.244;2023-04-30T12:42:31;3.00;;;2.90;;
9276;SDS011;4676;42.678;23.244;2023-04-30T12:44:59;3.07;;;2.97;;
9276;SDS011;4676;42.678;23.244;2023-04-30T12:47:26;5.30;;;2.80;;
9276;SDS011;4676;42.678;23.244;2023-04-30T12:49:53;2.60;;;2.50;;
9276;SDS011;4676;42.678;23.244;2023-04-30T12:52:24;3.40;;;2.50;;
9276;SDS011;4676;42.678;23.244;2023-04-30T12:54:51;2.70;;;2.60;;
9276;SDS011;4676;42.678;23.244;2023-04-30T12:57:20;4.77;;;2.47;;
9276;SDS011;4676;42.678;23.244;2023-04-30T12:59:56;2.50;;;2.40;;
9276;SDS011;4676;42.678;23.244;2023-04-30T13:02:24;2.80;;;2.70;;
9276;SDS011;4676;42.678;23.244;2023-04-30T13:04:53;2.30;;;2.20;;
9276;SDS011;4676;42.678;23.244;2023-04-30T13:07:21;2.43;;;2.33;;
9276;SDS011;4676;42.678;23.244;2023-04-30T13:09:49;2.83;;;2.73;;
9276;SDS011;4676;42.678;23.244;2023-04-30T13:12:15;4.40;;;3.37;;
9276;SDS011;4676;42.678;23.244;2023-04-30T13:14:43;2.50;;;2.40;;
9276;SDS011;4676;42.678;23.244;2023-04-30T13:17:10;5.03;;;2.70;;
9276;SDS011;4676;42.678;23.244;2023-04-30T13:19:38;2.83;;;2.70;;
9276;SDS011;4676;42.678;23.244;2023-04-30T13:22:04;3.03;;;2.93;;
9276;SDS011;4676;42.678;23.244;2023-04-30T13:24:32;3.00;;;2.80;;
9276;SDS011;4676;42.678;23.244;2023-04-30T13:26:59;2.70;;;2.37;;
9276;SDS011;4676;42.678;23.244;2023-04-30T13:29:26;2.80;;;2.60;;
9276;SDS011;4676;42.678;23.244;2023-04-30T13:31:53;2.90;;;2.80;;
9276;SDS011;4676;42.678;23.244;2023-04-30T13:34:20;3.17;;;2.97;;
9276;SDS011;4676;42.678;23.244;2023-04-30T13:36:46;2.60;;;2.40;;
9276;SDS011;4676;42.678;23.244;2023-04-30T13:39:13;2.97;;;2.87;;
9276;SDS011;4676;42.678;23.244;2023-04-30T13:41:41;4.60;;;2.90;;
9276;SDS011;4676;42.678;23.244;2023-04-30T13:44:09;2.57;;;2.47;;
9276;SDS011;4676;42.678;23.244;2023-04-30T13:46:36;2.80;;;2.57;;
9276;SDS011;4676;42.678;23.244;2023-04-30T13:49:03;2.50;;;2.40;;
9276;SDS011;4676;42.678;23.244;2023-04-30T13:51:30;3.10;;;2.90;;
9276;SDS011;4676;42.678;23.244;2023-04-30T13:53:56;2.50;;;2.40;;
9276;SDS011;4676;42.678;23.244;2023-04-30T13:56:23;2.40;;;2.23;;
9276;SDS011;4676;42.678;23.244;2023-04-30T13:58:52;2.60;;;2.50;;
9276;SDS011;4676;42.678;23.244;2023-04-30T14:01:18;2.70;;;2.60;;
9276;SDS011;4676;42.678;23.244;2023-04-30T14:03:45;2.40;;;2.30;;
9276;SDS011;4676;42.678;23.244;2023-04-30T14:06:12;2.20;;;2.10;;
9276;SDS011;4676;42.678;23.244;2023-04-30T14:08:39;2.90;;;1.93;;
9276;SDS011;4676;42.678;23.244;2023-04-30T14:11:06;2.90;;;2.70;;
9276;SDS011;4676;42.678;23.244;2023-04-30T14:13:33;6.90;;;2.60;;
9276;SDS011;4676;42.678;23.244;2023-04-30T14:16:01;5.17;;;2.37;;
9276;SDS011;4676;42.678;23.244;2023-04-30T14:18:27;4.73;;;2.50;;
9276;SDS011;4676;42.678;23.244;2023-04-30T14:20:54;2.60;;;2.40;;
9276;SDS011;4676;42.678;23.244;2023-04-30T14:23:21;2.70;;;2.50;;
9276;SDS011;4676;42.678;23.244;2023-04-30T14:25:47;5.73;;;3.20;;
9276;SDS011;4676;42.678;23.244;2023-04-30T14:28:14;3.03;;;2.80;;
9276;SDS011;4676;42.678;23.244;2023-04-30T14:30:41;2.60;;;2.50;;
9276;SDS011;4676;42.678;23.244;2023-04-30T14:33:09;3.93;;;2.90;;
9276;SDS011;4676;42.678;23.244;2023-04-30T14:35:36;3.83;;;2.60;;
9276;SDS011;4676;42.678;23.244;2023-04-30T14:38:03;2.47;;;2.20;;
9276;SDS011;4676;42.678;23.244;2023-04-30T14:40:30;2.60;;;2.40;;
9276;SDS011;4676;42.678;23.244;2023-04-30T14:42:57;4.13;;;2.23;;
9276;SDS011;4676;42.678;23.244;2023-04-30T14:45:23;2.77;;;2.33;;
9276;SDS011;4676;42.678;23.244;2023-04-30T14:47:52;2.70;;;2.50;;
9276;SDS011;4676;42.678;23.244;2023-04-30T14:50:20;4.43;;;3.17;;
9276;SDS011;4676;42.678;23.244;2023-04-30T14:52:48;1.90;;;1.80;;
9276;SDS011;4676;42.678;23.244;2023-04-30T14:55:14;2.40;;;2.17;;
9276;SDS011;4676;42.678;23.244;2023-04-30T14:57:41;1.73;;;1.63;;
9276;SDS011;4676;42.678;23.244;2023-04-30T15:00:08;2.30;;;2.20;;
9276;SDS011;4676;42.678;23.244;2023-04-30T15:02:36;2.70;;;2.60;;
9276;SDS011;4676;42.678;23.244;2023-04-30T15:05:03;3.10;;;2.90;;
9276;SDS011;4676;42.678;23.244;2023-04-30T15:07:31;3.70;;;3.50;;
9276;SDS011;4676;42.678;23.244;2023-04-30T15:09:58;3.47;;;3.27;;
9276;SDS011;4676;42.678;23.244;2023-04-30T15:12:25;3.73;;;3.43;;
9276;SDS011;4676;42.678;23.244;2023-04-30T15:14:52;2.83;;;2.63;;
9276;SDS011;4676;42.678;23.244;2023-04-30T15:17:18;2.33;;;2.20;;
9276;SDS011;4676;42.678;23.244;2023-04-30T15:19:45;1.70;;;1.60;;
9276;SDS011;4676;42.678;23.244;2023-04-30T15:22:12;7.07;;;2.03;;
9276;SDS011;4676;42.678;23.244;2023-04-30T15:24:41;1.93;;;1.83;;
9276;SDS011;4676;42.678;23.244;2023-04-30T15:27:08;2.17;;;2.07;;
9276;SDS011;4676;42.678;23.244;2023-04-30T15:29:35;9.00;;;6.83;;
9276;SDS011;4676;42.678;23.244;2023-04-30T15:32:01;6.37;;;5.43;;
9276;SDS011;4676;42.678;23.244;2023-04-30T15:34:28;2.80;;;2.60;;
9276;SDS011;4676;42.678;23.244;2023-04-30T15:36:55;11.47;;;5.97;;
9276;SDS011;4676;42.678;23.244;2023-04-30T15:39:23;2.00;;;1.90;;
9276;SDS011;4676;42.678;23.244;2023-04-30T15:41:52;1.97;;;1.87;;
9276;SDS011;4676;42.678;23.244;2023-04-30T15:44:18;1.93;;;1.83;;
9276;SDS011;4676;42.678;23.244;2023-04-30T15:46:45;3.20;;;2.60;;
9276;SDS011;4676;42.678;23.244;2023-04-30T15:49:12;3.20;;;2.90;;
9276;SDS011;4676;42.678;23.244;2023-04-30T15:51:39;2.50;;;2.40;;
9276;SDS011;4676;42.678;23.244;2023-04-30T15:54:06;3.47;;;2.53;;
9276;SDS011;4676;42.678;23.244;2023-04-30T15:56:35;3.57;;;3.20;;
9276;SDS011;4676;42.678;23.244;2023-04-30T15:59:04;3.17;;;2.80;;
9276;SDS011;4676;42.678;23.244;2023-04-30T16:01:31;2.97;;;2.77;;
9276;SDS011;4676;42.678;23.244;2023-04-30T16:03:57;2.50;;;2.30;;
9276;SDS011;4676;42.678;23.244;2023-04-30T16:06:25;3.03;;;2.50;;
9276;SDS011;4676;42.678;23.244;2023-04-30T16:08:52;2.70;;;2.50;;